Time;durP1;ratioP1;P1;durP2;ratioP2;P2;SDS_P1;SDS_P2;PMS_P1;PMS_P2;Temp;Humidity;BMP_temperature;BMP_pressure;BME280_temperature;BME280_humidity;BME280_pressure;Samples;Min_cycle;Max_cycle;Signal;HPM_P1;HPM_P2
2022/01/13 00:01:55;;;;;;;423.33;45.60;;;5.60;99.90;;;;;;5030698;28;20050;-90
2022/01/13 00:04:21;;;;;;;431.25;46.88;;;5.60;99.90;;;;;;5013945;28;20041;-90
2022/01/13 00:06:46;;;;;;;422.13;48.00;;;5.90;99.90;;;;;;5029873;28;20542;-88
2022/01/13 00:09:12;;;;;;;355.73;40.40;;;5.50;99.90;;;;;;5013079;28;20128;-89
2022/01/13 00:11:38;;;;;;;489.50;47.75;;;5.70;99.90;;;;;;5030300;28;20053;-90
2022/01/13 00:21:50;;;;;;;450.70;46.35;;;5.60;99.90;;;;;;5000660;28;20115;-91
2022/01/13 00:24:16;;;;;;;504.27;46.53;;;5.60;99.90;;;;;;4999570;28;20093;-90
2022/01/13 00:26:42;;;;;;;469.90;45.58;;;6.70;99.90;;;;;;5014023;28;20469;-88
2022/01/13 00:29:09;;;;;;;496.30;48.63;;;5.60;99.90;;;;;;5029672;28;20095;-89
2022/01/13 00:31:38;;;;;;;468.05;47.55;;;5.70;99.90;;;;;;5014072;28;20049;-90
2022/01/13 00:34:05;;;;;;;487.83;47.25;;;5.70;99.90;;;;;;5013832;28;20049;-90
2022/01/13 00:36:33;;;;;;;531.42;49.08;;;5.60;99.90;;;;;;5013788;28;20066;-88
2022/01/13 00:38:58;;;;;;;451.80;43.33;;;6.10;99.90;;;;;;5014097;28;20054;-89
2022/01/13 00:41:27;;;;;;;478.75;45.38;;;5.60;99.90;;;;;;5030898;28;20045;-89
2022/01/13 00:43:54;;;;;;;377.42;39.10;;;6.30;99.90;;;;;;5014325;28;20104;-90
2022/01/13 00:46:25;;;;;;;465.17;45.10;;;5.70;99.90;;;;;;5030837;28;20050;-90
2022/01/13 00:48:51;;;;;;;404.50;42.83;;;5.60;99.90;;;;;;5029812;28;20172;-89
2022/01/13 00:51:17;;;;;;;381.92;39.75;;;5.50;99.90;;;;;;5030508;28;20049;-90
2022/01/13 00:53:43;;;;;;;455.77;43.17;;;5.90;99.90;;;;;;5013688;28;20068;-89
2022/01/13 00:56:09;;;;;;;418.27;43.88;;;5.60;99.90;;;;;;5013196;28;20041;-89
2022/01/13 00:58:35;;;;;;;416.52;43.42;;;5.60;99.90;;;;;;5031314;28;20095;-88
2022/01/13 01:01:02;;;;;;;388.90;41.05;;;5.60;99.90;;;;;;5013603;28;20148;-91
2022/01/13 01:03:28;;;;;;;376.85;38.63;;;5.60;99.90;;;;;;5013145;28;20223;-91
2022/01/13 01:05:54;;;;;;;418.33;41.25;;;5.60;99.90;;;;;;5013556;28;20513;-90
2022/01/13 01:08:20;;;;;;;407.70;43.85;;;5.60;99.90;;;;;;4997009;28;20184;-91
2022/01/13 01:10:47;;;;;;;447.98;43.85;;;6.60;99.90;;;;;;5013740;28;20049;-89
2022/01/13 01:13:16;;;;;;;433.50;42.53;;;5.50;99.90;;;;;;5030666;28;20068;-89
2022/01/13 01:15:46;;;;;;;383.17;42.20;;;6.60;99.90;;;;;;5031095;28;20041;-90
2022/01/13 01:23:32;;;;;;;323.48;39.83;;;5.50;99.90;;;;;;5034306;28;20128;-89
2022/01/13 01:26:26;;;;;;;370.23;41.70;;;5.60;99.90;;;;;;5034395;28;20049;-90
2022/01/13 01:28:48;;;;;;;327.10;38.35;;;5.60;99.90;;;;;;5018736;28;20068;-90
2022/01/13 01:31:14;;;;;;;253.40;37.08;;;5.60;99.90;;;;;;5033070;28;20049;-89
2022/01/13 01:33:47;;;;;;;265.88;37.28;;;5.60;99.90;;;;;;5017080;28;20540;-91
2022/01/13 01:36:13;;;;;;;287.17;39.35;;;5.60;99.90;;;;;;5032541;28;20534;-90
2022/01/13 01:38:44;;;;;;;265.92;34.70;;;6.20;99.90;;;;;;5034284;28;20056;-91
2022/01/13 01:41:10;;;;;;;278.38;38.65;;;5.60;99.90;;;;;;5001752;28;20059;-89
2022/01/13 01:43:35;;;;;;;240.40;36.85;;;5.90;99.90;;;;;;5032757;28;20049;-90
2022/01/13 01:46:01;;;;;;;245.85;37.38;;;5.50;99.90;;;;;;5034076;28;20549;-90
2022/01/13 01:48:29;;;;;;;210.85;34.50;;;5.50;99.90;;;;;;5033569;28;20050;-91
2022/01/13 01:50:58;;;;;;;221.45;35.47;;;5.50;99.90;;;;;;5032926;28;20379;-90
2022/01/13 01:53:24;;;;;;;270.58;36.83;;;5.40;99.90;;;;;;5033422;28;20045;-91
2022/01/13 01:55:51;;;;;;;235.18;35.22;;;6.10;99.90;;;;;;5000118;28;20064;-91
2022/01/13 01:58:17;;;;;;;238.13;36.55;;;5.50;99.90;;;;;;4983520;28;20123;-90
2022/01/13 02:00:43;;;;;;;233.07;35.13;;;5.50;99.90;;;;;;5016411;28;20049;-91
2022/01/13 02:03:08;;;;;;;262.48;36.03;;;5.50;99.90;;;;;;5032527;28;20052;-90
2022/01/13 02:05:34;;;;;;;251.32;36.55;;;5.40;99.90;;;;;;5032266;28;20299;-91
2022/01/13 02:08:00;;;;;;;285.92;38.30;;;5.60;99.90;;;;;;5016154;28;20045;-89
2022/01/13 02:10:27;;;;;;;227.25;35.47;;;5.50;99.90;;;;;;5031938;28;20128;-91
2022/01/13 02:13:01;;;;;;;246.75;38.33;;;5.50;99.90;;;;;;5033820;28;20385;-89
2022/01/13 02:15:47;;;;;;;;;;;5.50;99.90;;;;;;5017336;28;20053;-89
2022/01/13 02:18:12;;;;;;;186.63;32.75;;;5.50;99.90;;;;;;5032477;28;19944;-90
2022/01/13 02:20:41;;;;;;;180.27;30.35;;;5.60;99.90;;;;;;5031671;28;20056;-92
2022/01/13 02:23:07;;;;;;;178.65;30.77;;;5.60;99.90;;;;;;5032402;28;20552;-89
2022/01/13 02:25:33;;;;;;;236.95;34.42;;;5.70;99.90;;;;;;5033168;28;20156;-90
2022/01/13 02:27:58;;;;;;;221.18;34.85;;;5.60;99.90;;;;;;5032323;28;20042;-92
2022/01/13 02:30:24;;;;;;;238.30;35.80;;;5.60;99.90;;;;;;5032291;28;20135;-90
2022/01/13 02:32:50;;;;;;;234.75;36.78;;;5.70;99.90;;;;;;5033954;28;20158;-91
2022/01/13 02:35:15;;;;;;;200.35;35.75;;;6.30;99.90;;;;;;5032130;28;20053;-87
2022/01/13 02:37:42;;;;;;;217.52;35.38;;;5.60;99.90;;;;;;5015583;28;20052;-91
2022/01/13 02:40:08;;;;;;;243.27;35.63;;;6.20;99.90;;;;;;5032101;28;20053;-90
2022/01/13 02:42:33;;;;;;;231.98;37.33;;;5.60;99.90;;;;;;5032753;28;20049;-91
2022/01/13 02:45:14;;;;;;;218.90;36.92;;;5.60;99.90;;;;;;5015921;28;20057;-91
2022/01/13 02:50:10;;;;;;;217.18;34.85;;;5.60;99.90;;;;;;5034438;28;20049;-90
2022/01/13 02:52:37;;;;;;;207.07;34.55;;;5.50;99.90;;;;;;5033747;28;20049;-87
2022/01/13 02:55:03;;;;;;;204.68;34.50;;;5.50;99.90;;;;;;5017809;28;20136;-88
2022/01/13 02:57:29;;;;;;;212.57;35.83;;;5.50;99.90;;;;;;4998891;28;20045;-89
2022/01/13 02:59:54;;;;;;;225.77;35.60;;;5.50;99.90;;;;;;5015275;28;20478;-89
2022/01/13 03:02:28;;;;;;;196.90;34.15;;;5.40;99.90;;;;;;5035835;28;20045;-89
2022/01/13 03:04:53;;;;;;;205.17;34.50;;;5.50;99.90;;;;;;5055970;28;20037;-87
2022/01/13 03:07:19;;;;;;;181.63;34.17;;;5.50;99.90;;;;;;5047170;28;20181;-89
2022/01/13 03:09:45;;;;;;;170.20;31.92;;;5.40;99.90;;;;;;4983964;28;20080;-90
2022/01/13 03:12:11;;;;;;;228.77;36.20;;;5.40;99.90;;;;;;5033424;28;20166;-91
2022/01/13 03:14:37;;;;;;;206.90;32.88;;;5.40;99.90;;;;;;5032934;28;20053;-88
2022/01/13 03:17:02;;;;;;;190.77;33.80;;;5.50;99.90;;;;;;5031965;28;20128;-90
2022/01/13 03:19:28;;;;;;;184.73;30.98;;;5.40;99.90;;;;;;5030730;28;20046;-89
2022/01/13 03:21:54;;;;;;;172.85;29.63;;;5.40;99.90;;;;;;5031874;28;20057;-91
2022/01/13 03:24:19;;;;;;;207.10;34.45;;;5.90;99.90;;;;;;5031011;28;20049;-90
2022/01/13 03:26:49;;;;;;;221.05;35.65;;;5.50;99.90;;;;;;5031717;28;20255;-90
2022/01/13 03:29:16;;;;;;;219.38;35.58;;;5.40;99.90;;;;;;5032117;28;20560;-90
2022/01/13 03:31:43;;;;;;;208.45;35.00;;;5.40;99.90;;;;;;5015324;28;20464;-90
2022/01/13 03:34:08;;;;;;;186.13;32.00;;;5.30;99.90;;;;;;5033574;28;20136;-89
2022/01/13 03:36:34;;;;;;;230.32;36.75;;;5.40;99.90;;;;;;5013864;28;20241;-90
2022/01/13 03:39:00;;;;;;;214.27;36.60;;;5.40;99.90;;;;;;5031000;28;20068;-91
2022/01/13 03:41:26;;;;;;;233.93;36.17;;;5.40;99.90;;;;;;5014609;28;20060;-90
2022/01/13 03:43:54;;;;;;;231.88;36.22;;;5.60;99.90;;;;;;5030412;28;20049;-90
2022/01/13 03:46:19;;;;;;;269.85;39.15;;;5.40;99.90;;;;;;5030718;28;20049;-89
2022/01/13 03:48:45;;;;;;;279.00;36.38;;;5.70;99.90;;;;;;5013583;28;20052;-90
2022/01/13 03:51:11;;;;;;;238.07;36.88;;;5.40;99.90;;;;;;5031697;28;20498;-92
2022/01/13 03:53:56;;;;;;;291.73;41.42;;;5.40;99.90;;;;;;5031399;28;20048;-90
2022/01/13 03:56:59;;;;;;;252.50;38.17;;;5.30;99.90;;;;;;5030951;28;20136;-91
2022/01/13 03:59:29;;;;;;;201.48;32.65;;;5.30;99.90;;;;;;5030577;28;20127;-89
2022/01/13 04:02:03;;;;;;;225.18;34.03;;;5.40;99.90;;;;;;5030415;28;20144;-90
2022/01/13 04:04:38;;;;;;;187.68;32.28;;;5.40;99.90;;;;;;5032052;28;20053;-90
2022/01/13 04:07:10;;;;;;;257.90;38.13;;;5.40;99.90;;;;;;5014888;28;20087;-90
2022/01/13 04:09:54;;;;;;;224.77;33.58;;;5.40;99.90;;;;;;5030654;28;20054;-91
2022/01/13 04:12:22;;;;;;;263.55;36.92;;;5.40;99.90;;;;;;4999172;28;20053;-90
2022/01/13 04:14:51;;;;;;;232.43;33.92;;;5.60;99.90;;;;;;5032430;28;20061;-90
2022/01/13 04:17:21;;;;;;;241.07;31.63;;;5.30;99.90;;;;;;5015191;28;20042;-90
2022/01/13 04:19:47;;;;;;;249.40;37.53;;;5.60;99.90;;;;;;5030336;28;20092;-91
2022/01/13 04:22:13;;;;;;;231.45;31.38;;;5.40;99.90;;;;;;4981850;28;20140;-90
2022/01/13 04:24:45;;;;;;;284.98;35.67;;;5.30;99.90;;;;;;4981209;28;20054;-90
2022/01/13 04:27:13;;;;;;;259.02;35.83;;;5.30;99.90;;;;;;5014226;28;20123;-91
2022/01/13 04:29:41;;;;;;;247.65;35.78;;;5.30;99.90;;;;;;5029510;28;20412;-88
2022/01/13 04:32:07;;;;;;;263.65;35.72;;;5.40;99.90;;;;;;5030048;28;20057;-92
2022/01/13 04:34:33;;;;;;;248.63;37.55;;;5.30;99.90;;;;;;5031482;28;20115;-90
2022/01/13 04:36:59;;;;;;;215.52;33.83;;;5.30;99.90;;;;;;5030428;28;20143;-91
2022/01/13 04:39:26;;;;;;;273.20;34.67;;;5.40;99.90;;;;;;5030151;28;20397;-90
2022/01/13 04:41:52;;;;;;;189.82;27.27;;;5.40;99.90;;;;;;5013462;28;20053;-90
2022/01/13 04:44:19;;;;;;;192.35;32.13;;;5.40;99.90;;;;;;4997598;28;20055;-90
2022/01/13 04:46:45;;;;;;;234.80;33.85;;;5.50;99.90;;;;;;5029631;28;20104;-91
2022/01/13 04:49:11;;;;;;;206.98;30.90;;;5.30;99.90;;;;;;5013477;28;20049;-91
2022/01/13 04:51:37;;;;;;;226.75;32.30;;;5.40;99.90;;;;;;5013750;28;20099;-91
2022/01/13 04:54:04;;;;;;;158.57;25.77;;;5.40;99.90;;;;;;5015697;28;20056;-91
2022/01/13 04:58:58;;;;;;;262.17;33.75;;;5.30;99.90;;;;;;5029006;28;20049;-88
2022/01/13 05:01:23;;;;;;;198.48;31.45;;;5.20;99.90;;;;;;5038413;28;20100;-89
2022/01/13 05:03:49;;;;;;;199.63;33.17;;;5.30;99.90;;;;;;5018011;28;20049;-89
2022/01/13 05:06:19;;;;;;;221.65;34.80;;;5.20;99.90;;;;;;5034026;28;20107;-89
2022/01/13 05:08:45;;;;;;;165.43;29.48;;;5.30;99.90;;;;;;5017503;28;20099;-89
2022/01/13 05:11:11;;;;;;;191.75;31.98;;;5.30;99.90;;;;;;4985206;28;20053;-91
2022/01/13 05:13:37;;;;;;;232.63;35.42;;;5.20;99.90;;;;;;5034751;28;20141;-90
2022/01/13 05:16:03;;;;;;;167.95;27.40;;;5.20;99.90;;;;;;5033186;28;20508;-90
2022/01/13 05:21:21;;;;;;;225.65;33.40;;;5.30;99.90;;;;;;5033221;28;20085;-91
2022/01/13 05:23:43;;;;;;;172.85;30.02;;;5.30;99.90;;;;;;5032518;28;20397;-89
2022/01/13 05:26:09;;;;;;;202.75;33.80;;;5.20;99.90;;;;;;5033062;28;20041;-90
2022/01/13 05:28:35;;;;;;;217.25;33.30;;;5.50;99.90;;;;;;5016985;28;20486;-90
2022/01/13 05:31:01;;;;;;;204.43;32.90;;;5.60;99.90;;;;;;5016586;28;20068;-88
2022/01/13 05:33:26;;;;;;;193.15;33.05;;;5.20;99.90;;;;;;5033311;28;20045;-90
2022/01/13 05:35:52;;;;;;;214.35;34.95;;;5.30;99.90;;;;;;5016240;28;20060;-89
2022/01/13 05:38:18;;;;;;;174.70;32.10;;;5.20;99.90;;;;;;5033343;28;20045;-90
2022/01/13 05:40:44;;;;;;;208.93;34.20;;;5.20;99.90;;;;;;5034051;28;20490;-88
2022/01/13 05:43:10;;;;;;;227.93;35.55;;;6.30;99.90;;;;;;5032955;28;20048;-89
2022/01/13 05:45:36;;;;;;;200.70;33.55;;;6.30;99.90;;;;;;5033129;28;20053;-88
2022/01/13 05:48:02;;;;;;;199.40;33.00;;;5.20;99.90;;;;;;5032739;28;20136;-87
2022/01/13 05:50:28;;;;;;;220.52;36.20;;;5.30;99.90;;;;;;5016803;28;20049;-88
2022/01/13 05:52:54;;;;;;;212.98;34.50;;;5.20;99.90;;;;;;5016456;28;20049;-89
2022/01/13 05:55:20;;;;;;;220.80;35.95;;;5.70;99.90;;;;;;5016750;28;20045;-89
2022/01/13 05:57:45;;;;;;;225.05;37.33;;;5.80;99.90;;;;;;5016506;28;20046;-88
2022/01/13 06:00:13;;;;;;;247.10;38.70;;;5.20;99.90;;;;;;5016296;28;20600;-89
2022/01/13 06:02:39;;;;;;;228.88;36.65;;;5.20;99.90;;;;;;5032920;28;20049;-89
2022/01/13 06:05:05;;;;;;;213.18;32.10;;;5.60;99.90;;;;;;5015561;28;20053;-89
2022/01/13 06:07:31;;;;;;;249.23;39.58;;;5.20;99.90;;;;;;5016506;28;20540;-91
2022/01/13 06:09:57;;;;;;;276.98;40.33;;;5.20;99.90;;;;;;5032878;28;20097;-89
2022/01/13 06:12:32;;;;;;;214.07;34.50;;;5.20;99.90;;;;;;5017635;28;20058;-88
2022/01/13 06:15:02;;;;;;;262.45;38.42;;;5.20;99.90;;;;;;5033346;28;20064;-85
2022/01/13 06:17:28;;;;;;;266.25;39.40;;;5.20;99.90;;;;;;5033814;28;20497;-88
2022/01/13 06:19:55;;;;;;;235.88;37.35;;;5.20;99.90;;;;;;5032653;28;20053;-92
2022/01/13 06:22:24;;;;;;;227.70;35.92;;;5.30;99.90;;;;;;5032754;28;20509;-91
2022/01/13 06:24:50;;;;;;;249.85;38.10;;;5.40;99.90;;;;;;5016421;28;20042;-92
2022/01/13 06:27:16;;;;;;;207.25;35.67;;;5.30;99.90;;;;;;4999673;28;20057;-90
2022/01/13 06:29:41;;;;;;;233.23;37.95;;;5.40;99.90;;;;;;5016295;28;20046;-90
2022/01/13 06:32:07;;;;;;;219.75;34.95;;;5.30;99.90;;;;;;5015786;28;20054;-91
2022/01/13 06:34:33;;;;;;;190.35;33.15;;;6.10;99.90;;;;;;5033093;28;20041;-90
2022/01/13 06:36:59;;;;;;;238.05;37.85;;;5.30;99.90;;;;;;5015569;28;20062;-92
2022/01/13 06:39:24;;;;;;;228.65;37.08;;;5.30;99.90;;;;;;5033088;28;20129;-94
2022/01/13 06:41:50;;;;;;;234.80;36.30;;;5.30;99.90;;;;;;5016412;28;20053;-90
2022/01/13 06:44:16;;;;;;;209.70;36.20;;;5.80;99.90;;;;;;5032737;28;20052;-92
2022/01/13 06:46:41;;;;;;;165.80;28.83;;;5.30;99.90;;;;;;5032595;28;20048;-94
2022/01/13 06:49:07;;;;;;;205.20;35.17;;;5.30;99.90;;;;;;4998840;28;20052;-92
2022/01/13 06:51:33;;;;;;;184.60;33.35;;;5.30;99.90;;;;;;5032286;28;20045;-91
2022/01/13 06:53:59;;;;;;;182.30;33.42;;;5.30;99.90;;;;;;4998918;28;20045;-91
2022/01/13 06:56:24;;;;;;;180.52;32.67;;;5.30;99.90;;;;;;5033172;28;20087;-91
2022/01/13 06:58:51;;;;;;;164.25;31.92;;;5.60;99.90;;;;;;5033029;28;20091;-92
2022/01/13 07:01:18;;;;;;;210.15;34.05;;;5.30;99.90;;;;;;5033355;28;20061;-93
2022/01/13 07:03:43;;;;;;;143.10;28.13;;;5.90;99.90;;;;;;5040993;28;20054;-87
2022/01/13 07:06:09;;;;;;;148.88;29.90;;;5.40;99.90;;;;;;5055844;28;20037;-89
2022/01/13 07:08:35;;;;;;;152.70;30.95;;;5.70;99.90;;;;;;5034441;28;20076;-94
2022/01/13 07:11:03;;;;;;;215.80;35.28;;;5.30;99.90;;;;;;5031490;28;20068;-88
2022/01/13 07:13:29;;;;;;;180.68;30.85;;;5.70;99.90;;;;;;5032851;28;20130;-88
2022/01/13 07:15:55;;;;;;;173.55;32.92;;;5.40;99.90;;;;;;4998868;28;20060;-89
2022/01/13 07:18:21;;;;;;;156.93;28.65;;;5.30;99.90;;;;;;5031996;28;20042;-88
2022/01/13 07:20:48;;;;;;;188.57;32.92;;;5.40;99.90;;;;;;4998560;28;20045;-89
2022/01/13 07:23:14;;;;;;;175.40;31.02;;;5.40;99.90;;;;;;5031012;28;20120;-92
2022/01/13 07:25:39;;;;;;;188.55;33.30;;;5.40;99.90;;;;;;5014768;28;20565;-89
2022/01/13 07:28:05;;;;;;;181.35;31.05;;;5.30;99.90;;;;;;5013982;28;20095;-90
2022/01/13 07:30:32;;;;;;;183.18;31.90;;;5.50;99.90;;;;;;5031065;28;20110;-91
2022/01/13 07:32:58;;;;;;;163.60;31.58;;;5.40;99.90;;;;;;5030904;28;20049;-92
2022/01/13 07:35:24;;;;;;;171.48;31.80;;;6.20;99.90;;;;;;5029822;28;20061;-92
2022/01/13 07:37:50;;;;;;;167.82;32.60;;;5.50;99.90;;;;;;5032495;28;20461;-89
2022/01/13 07:40:17;;;;;;;140.60;28.90;;;5.50;99.90;;;;;;5031826;28;20052;-89
2022/01/13 07:42:46;;;;;;;197.60;34.38;;;5.40;99.90;;;;;;5031977;28;20056;-90
2022/01/13 07:45:12;;;;;;;207.70;35.53;;;5.50;99.90;;;;;;5030655;28;20121;-90
2022/01/13 07:47:38;;;;;;;175.52;32.35;;;5.50;99.90;;;;;;5031130;28;20053;-91
2022/01/13 07:50:08;;;;;;;163.40;31.17;;;5.40;99.90;;;;;;5032324;28;20048;-89
2022/01/13 07:52:33;;;;;;;184.70;33.35;;;5.50;99.90;;;;;;5033258;28;20037;-88
2022/01/13 07:54:59;;;;;;;173.57;32.05;;;5.50;99.90;;;;;;5031719;28;20048;-91
2022/01/13 07:57:25;;;;;;;173.60;32.78;;;5.50;99.90;;;;;;5029717;28;20715;-90
2022/01/13 07:59:52;;;;;;;174.25;31.50;;;5.80;99.90;;;;;;5013627;28;20065;-89
2022/01/13 08:02:18;;;;;;;189.43;33.63;;;5.50;99.90;;;;;;5013622;28;20132;-91
2022/01/13 08:04:44;;;;;;;183.80;30.90;;;5.50;99.90;;;;;;5031345;28;20132;-91
2022/01/13 08:07:09;;;;;;;208.32;36.88;;;5.50;99.90;;;;;;5030060;28;20049;-86
2022/01/13 08:09:35;;;;;;;209.95;35.42;;;5.50;99.90;;;;;;5031024;28;20663;-92
2022/01/13 08:12:01;;;;;;;177.15;32.85;;;5.50;99.90;;;;;;5030823;28;20057;-91
2022/01/13 08:14:26;;;;;;;220.88;37.22;;;5.60;99.90;;;;;;5029728;28;20056;-90
2022/01/13 08:16:56;;;;;;;193.30;35.00;;;5.90;99.90;;;;;;5030236;28;20053;-91
2022/01/13 08:22:06;;;;;;;166.50;31.70;;;5.80;99.90;;;;;;5030149;28;20049;-88
2022/01/13 08:24:32;;;;;;;186.52;32.63;;;5.60;99.90;;;;;;5031271;28;20052;-89
2022/01/13 08:26:57;;;;;;;188.27;33.85;;;5.60;99.90;;;;;;5029745;28;20081;-88
2022/01/13 08:29:23;;;;;;;166.80;33.03;;;5.70;99.90;;;;;;5031613;28;20080;-89
2022/01/13 08:31:49;;;;;;;147.60;32.65;;;5.70;99.90;;;;;;5033951;28;20045;-88
2022/01/13 08:34:16;;;;;;;167.35;34.75;;;6.30;99.90;;;;;;5033381;28;20045;-88
2022/01/13 08:36:42;;;;;;;163.45;31.73;;;5.70;99.90;;;;;;5035458;28;20057;-89
2022/01/13 08:39:08;;;;;;;180.35;33.83;;;6.20;99.90;;;;;;5033901;28;20091;-89
2022/01/13 08:41:34;;;;;;;166.70;32.95;;;5.80;99.90;;;;;;5017724;28;20064;-89
2022/01/13 08:43:59;;;;;;;168.52;34.35;;;5.80;99.90;;;;;;5034219;28;20049;-90
2022/01/13 08:46:26;;;;;;;194.75;35.80;;;5.80;99.90;;;;;;5033103;28;20112;-85
2022/01/13 08:48:52;;;;;;;186.50;36.33;;;5.80;99.90;;;;;;5033176;28;20041;-87
2022/01/13 08:51:18;;;;;;;188.65;36.97;;;5.80;99.90;;;;;;5000278;28;20418;-87
2022/01/13 08:53:45;;;;;;;182.20;34.35;;;5.40;99.90;;;;;;5033840;28;20430;-85
2022/01/13 08:56:11;;;;;;;181.93;32.88;;;6.30;99.90;;;;;;5033159;28;20366;-87
2022/01/13 08:58:37;;;;;;;196.38;37.97;;;5.80;99.90;;;;;;5015300;28;20549;-88
2022/01/13 09:01:03;;;;;;;167.15;34.83;;;5.80;99.90;;;;;;5015985;28;20045;-87
2022/01/13 09:03:28;;;;;;;169.88;33.38;;;5.90;99.90;;;;;;4998880;28;20045;-88
2022/01/13 09:05:54;;;;;;;213.27;37.10;;;5.90;99.90;;;;;;5032782;28;20053;-87
2022/01/13 09:08:20;;;;;;;192.90;36.00;;;5.90;99.90;;;;;;5035161;28;20061;-87
2022/01/13 09:10:45;;;;;;;195.10;37.22;;;5.90;99.90;;;;;;5037436;28;20403;-86
2022/01/13 09:13:14;;;;;;;205.93;33.30;;;5.90;99.90;;;;;;5031598;28;20041;-87
2022/01/13 09:15:45;;;;;;;184.30;36.13;;;6.10;99.90;;;;;;5032301;28;20046;-87
2022/01/13 09:18:16;;;;;;;204.00;37.45;;;6.00;99.90;;;;;;5016777;28;20121;-86
2022/01/13 09:20:41;;;;;;;189.00;36.38;;;6.00;99.90;;;;;;5031895;28;20042;-87
2022/01/13 09:23:08;;;;;;;209.93;38.05;;;6.00;99.90;;;;;;4999581;28;20056;-87
2022/01/13 09:25:33;;;;;;;212.13;38.15;;;6.00;99.90;;;;;;5032991;28;20175;-87
2022/01/13 09:27:59;;;;;;;220.43;38.08;;;6.00;99.90;;;;;;5015314;28;22016;-85
2022/01/13 09:30:25;;;;;;;212.70;36.90;;;6.00;99.90;;;;;;5015011;28;20053;-85
2022/01/13 09:32:51;;;;;;;193.73;37.33;;;6.00;99.90;;;;;;5033217;28;20524;-85
2022/01/13 09:35:17;;;;;;;224.00;37.20;;;5.90;99.90;;;;;;5015469;28;20149;-88
2022/01/13 09:37:42;;;;;;;203.63;37.03;;;6.00;99.90;;;;;;4998837;28;20069;-86
2022/01/13 09:40:09;;;;;;;201.43;36.53;;;6.30;99.90;;;;;;5031687;28;20061;-87
2022/01/13 09:42:35;;;;;;;186.18;36.47;;;6.10;99.90;;;;;;5015374;28;20065;-86
2022/01/13 09:45:02;;;;;;;197.48;36.67;;;6.00;99.90;;;;;;5031834;28;20175;-85
2022/01/13 09:47:29;;;;;;;201.02;35.90;;;6.30;99.90;;;;;;5032599;28;20107;-86
2022/01/13 09:49:55;;;;;;;214.50;36.10;;;6.10;99.90;;;;;;5033696;28;20401;-87
2022/01/13 09:52:21;;;;;;;214.50;38.42;;;6.10;99.90;;;;;;5016291;28;20057;-87
2022/01/13 09:54:47;;;;;;;230.27;38.47;;;6.10;99.90;;;;;;5014890;28;20042;-87
2022/01/13 09:57:13;;;;;;;262.85;38.90;;;6.10;99.90;;;;;;5033083;28;20049;-87
2022/01/13 09:59:39;;;;;;;251.90;39.22;;;6.20;99.90;;;;;;5031017;28;20517;-87
2022/01/13 10:02:05;;;;;;;207.13;35.15;;;6.20;99.90;;;;;;5015408;28;20050;-87
2022/01/13 10:04:47;;;;;;;209.23;36.38;;;6.30;99.90;;;;;;5031026;28;20053;-87
2022/01/13 10:07:17;;;;;;;265.75;42.22;;;6.30;99.90;;;;;;4998868;28;20042;-86
2022/01/13 10:10:00;;;;;;;222.05;37.53;;;6.30;99.90;;;;;;5014704;28;20052;-87
2022/01/13 10:12:28;;;;;;;224.88;37.05;;;6.30;99.90;;;;;;4999960;28;20053;-86
2022/01/13 10:17:26;;;;;;;199.25;36.08;;;6.30;99.90;;;;;;5015129;28;20053;-85
2022/01/13 10:19:55;;;;;;;214.45;38.53;;;6.30;99.90;;;;;;5031659;28;20046;-85
2022/01/13 10:22:25;;;;;;;199.63;37.47;;;6.30;99.90;;;;;;5015337;28;20055;-85
2022/01/13 10:24:55;;;;;;;231.20;40.42;;;6.40;99.90;;;;;;5030283;28;20045;-84
2022/01/13 10:27:29;;;;;;;204.57;37.00;;;6.30;99.90;;;;;;5014786;28;20147;-85
2022/01/13 10:29:59;;;;;;;169.07;31.97;;;6.60;99.90;;;;;;5030140;28;20045;-85
2022/01/13 10:32:32;;;;;;;193.25;37.72;;;6.40;99.90;;;;;;5014482;28;20060;-86
2022/01/13 10:35:18;;;;;;;201.35;37.17;;;6.40;99.90;;;;;;5014777;28;20045;-87
2022/01/13 10:37:53;;;;;;;175.18;34.75;;;6.50;99.90;;;;;;5030063;28;20042;-85
2022/01/13 10:40:25;;;;;;;167.68;33.42;;;6.50;99.90;;;;;;5014700;28;20045;-85
2022/01/13 10:45:38;;;;;;;146.15;34.28;;;6.50;99.90;;;;;;5014229;28;20138;-85
2022/01/13 10:48:14;;;;;;;166.02;34.92;;;6.40;99.90;;;;;;5030406;28;20057;-86
2022/01/13 10:50:40;;;;;;;180.48;37.22;;;6.50;99.90;;;;;;5030577;28;20049;-85
2022/01/13 10:53:28;;;;;;;157.90;35.85;;;6.50;99.90;;;;;;5033758;28;20057;-86
2022/01/13 10:56:00;;;;;;;141.75;30.50;;;6.50;99.90;;;;;;5000347;28;20045;-87
2022/01/13 10:58:30;;;;;;;169.85;35.60;;;6.60;99.90;;;;;;5030444;28;20056;-87
2022/01/13 11:00:57;;;;;;;154.60;30.98;;;6.60;99.90;;;;;;4997875;28;20053;-94
2022/01/13 11:03:24;;;;;;;157.65;32.63;;;6.60;99.90;;;;;;5033820;28;20064;-91
2022/01/13 11:05:51;;;;;;;152.73;33.92;;;6.70;99.90;;;;;;5031789;28;20049;-86
2022/01/13 11:08:40;;;;;;;146.43;31.67;;;6.70;99.90;;;;;;5015595;28;20049;-91
2022/01/13 11:11:06;;;;;;;147.38;32.05;;;6.70;99.90;;;;;;5015650;28;20060;-95
2022/01/13 11:13:36;;;;;;;142.48;34.63;;;6.70;99.90;;;;;;5032548;28;20053;-86
2022/01/13 11:16:03;;;;;;;160.10;34.88;;;7.00;99.90;;;;;;5030288;28;20223;-91
2022/01/13 11:18:30;;;;;;;165.20;35.60;;;6.80;99.90;;;;;;5014633;28;20140;-92
2022/01/13 11:20:56;;;;;;;150.90;33.25;;;6.80;99.90;;;;;;5031379;28;20049;-91
2022/01/13 11:23:22;;;;;;;166.05;36.22;;;6.80;99.90;;;;;;5014171;28;20053;-91
2022/01/13 11:25:50;;;;;;;148.98;33.80;;;6.80;99.90;;;;;;5014070;28;20053;-90
2022/01/13 11:28:16;;;;;;;174.52;34.08;;;6.80;99.90;;;;;;5013739;28;20447;-89
2022/01/13 11:30:42;;;;;;;158.13;34.08;;;6.80;99.90;;;;;;5029526;28;20148;-86
2022/01/13 11:33:07;;;;;;;155.63;34.60;;;6.80;99.90;;;;;;5013296;28;20767;-87
2022/01/13 11:35:35;;;;;;;157.55;36.45;;;6.80;99.90;;;;;;5029451;28;20505;-88
2022/01/13 11:38:05;;;;;;;157.77;34.40;;;6.70;99.90;;;;;;5029807;28;20195;-88
2022/01/13 11:40:41;;;;;;;160.63;34.05;;;6.70;99.90;;;;;;5029975;28;20049;-89
2022/01/13 11:43:25;;;;;;;127.75;30.65;;;6.80;99.90;;;;;;5030088;28;20045;-85
2022/01/13 11:45:51;;;;;;;129.43;30.15;;;6.80;99.90;;;;;;5016481;28;20060;-89
2022/01/13 11:48:18;;;;;;;124.85;31.25;;;6.80;99.90;;;;;;5014408;28;20049;-88
2022/01/13 11:50:48;;;;;;;95.93;25.50;;;7.10;99.90;;;;;;5028971;28;20610;-87
2022/01/13 11:53:31;;;;;;;113.75;31.17;;;6.80;99.90;;;;;;5029850;28;20049;-90
2022/01/13 11:56:06;;;;;;;99.32;25.58;;;6.70;99.90;;;;;;5029995;28;20132;-89
2022/01/13 11:58:42;;;;;;;108.15;27.80;;;7.00;99.90;;;;;;5030110;28;20053;-89
2022/01/13 12:01:14;;;;;;;104.38;29.25;;;6.70;99.90;;;;;;5014405;28;20065;-90
2022/01/13 12:03:41;;;;;;;129.82;33.63;;;6.80;99.90;;;;;;5029635;28;20083;-85
2022/01/13 12:06:06;;;;;;;123.05;33.38;;;6.80;99.90;;;;;;5012340;28;20049;-86
2022/01/13 12:08:47;;;;;;;117.30;32.78;;;6.70;99.90;;;;;;5029226;28;20405;-85
2022/01/13 12:11:34;;;;;;;96.95;30.02;;;6.80;99.90;;;;;;5012877;28;20140;-85
2022/01/13 12:14:00;;;;;;;111.85;32.30;;;6.80;99.90;;;;;;5028773;28;20049;-85
2022/01/13 12:16:55;;;;;;;101.93;31.13;;;6.90;99.90;;;;;;5029112;28;20061;-85
2022/01/13 12:19:36;;;;;;;107.78;33.60;;;6.90;99.90;;;;;;5029561;28;20056;-85
2022/01/13 12:22:07;;;;;;;116.82;35.30;;;6.80;99.90;;;;;;5028892;28;20045;-85
2022/01/13 12:24:42;;;;;;;115.25;32.63;;;6.80;99.90;;;;;;5028907;28;20099;-86
2022/01/13 12:27:08;;;;;;;117.15;37.00;;;6.90;99.90;;;;;;5011821;28;20049;-87
2022/01/13 12:29:36;;;;;;;101.78;34.75;;;6.80;99.90;;;;;;5030156;28;20056;-85
2022/01/13 12:32:06;;;;;;;96.13;30.05;;;6.90;99.90;;;;;;5029651;28;20096;-87
2022/01/13 12:34:31;;;;;;;108.38;34.80;;;7.00;99.90;;;;;;5012902;28;20049;-86
2022/01/13 12:36:58;;;;;;;103.30;33.13;;;7.10;99.90;;;;;;5027407;28;20069;-84
2022/01/13 12:39:24;;;;;;;102.30;34.97;;;6.90;99.90;;;;;;5028491;28;20049;-84
2022/01/13 12:41:59;;;;;;;111.10;33.08;;;6.90;99.90;;;;;;5028346;28;20420;-86
2022/01/13 12:47:09;;;;;;;115.85;36.13;;;6.90;99.90;;;;;;5014347;28;20088;-85
2022/01/13 12:49:35;;;;;;;115.72;36.58;;;7.00;99.90;;;;;;5028981;28;20080;-85
2022/01/13 12:52:01;;;;;;;100.40;31.25;;;7.00;99.90;;;;;;5028779;28;20046;-85
2022/01/13 12:54:27;;;;;;;104.93;34.28;;;7.00;99.90;;;;;;5030006;28;20041;-85
2022/01/13 12:56:53;;;;;;;108.75;35.47;;;7.00;99.90;;;;;;5029935;28;20054;-84
2022/01/13 12:59:18;;;;;;;100.70;33.72;;;7.00;99.90;;;;;;5028502;28;20057;-84
2022/01/13 13:01:44;;;;;;;100.03;35.72;;;7.10;99.90;;;;;;4995833;28;20061;-84
2022/01/13 13:04:11;;;;;;;101.07;34.42;;;7.10;99.90;;;;;;5028291;28;20131;-85